Terminal Aerodrome Forecast
Issued by NWS

Home | Current Version | Previous Version | Graphics & Text | Print | Product List | Glossary On
Versions: 1 2 3 4 5 6 7 8 9 10 11 12 13 14 15 16 17 18 19 20 21
000
FTUS43 KGRB 241000 AAA
TAFAUW
TAF AMD
KAUW 241020Z 2410/2506 22012G21KT P6SM -SN SCT035 BKN050
      WS012/23040KT
      TEMPO 2410/2411 4SM -SN BKN035
     FM241100 25015G23KT 6SM -SN BLSN SCT028 OVC050 WS012/24040KT
      TEMPO 2412/2415 2SM -SN BLSN SCT018 BKN028
     FM241700 30015G25KT 6SM BLSN BKN040
     FM250000 32007KT P6SM SCT050=

USA.gov is the U.S. government's official web portal to all federal, state and local government web resources and services.